Time;durP1;ratioP1;P1;durP2;ratioP2;P2;SDS_P1;SDS_P2;PMS_P1;PMS_P2;Temp;Humidity;BMP_temperature;BMP_pressure;BME280_temperature;BME280_humidity;BME280_pressure;Samples;Min_cycle;Max_cycle;Signal;HPM_P1;HPM_P2
2022/12/28 00:01:22;;;;;;;8.13;7.43;;;6.70;99.90;;;;;;10285376;28;20221;-82
2022/12/28 00:06:25;;;;;;;15.00;8.50;;;6.70;99.90;;;;;;10290937;28;20192;-82
2022/12/28 00:11:28;;;;;;;6.13;5.57;;;6.70;99.90;;;;;;10294193;28;20219;-83
2022/12/28 00:16:33;;;;;;;5.80;5.30;;;6.70;99.90;;;;;;10285872;28;20239;-82
2022/12/28 00:21:35;;;;;;;6.77;6.27;;;6.70;99.90;;;;;;10291689;28;20266;-83
2022/12/28 00:26:38;;;;;;;5.90;5.30;;;6.80;99.90;;;;;;10283314;28;20227;-83
2022/12/28 00:31:41;;;;;;;4.37;4.13;;;6.80;99.90;;;;;;10280048;28;20208;-84
2022/12/28 00:36:43;;;;;;;4.87;4.40;;;6.80;99.90;;;;;;10288335;28;20290;-84
2022/12/28 00:41:47;;;;;;;5.20;4.50;;;6.80;99.90;;;;;;10285378;28;20229;-84
2022/12/28 00:46:49;;;;;;;5.53;5.03;;;6.80;99.90;;;;;;10283319;28;20200;-84
2022/12/28 00:51:53;;;;;;;4.33;4.00;;;6.80;99.90;;;;;;10295156;28;20216;-82
2022/12/28 00:56:56;;;;;;;5.57;5.07;;;6.80;99.90;;;;;;10306821;28;20647;-83
2022/12/28 01:01:58;;;;;;;4.27;3.97;;;6.80;99.90;;;;;;10311572;28;20227;-82
2022/12/28 01:07:01;;;;;;;5.10;4.47;;;6.80;99.90;;;;;;10305259;28;20197;-82
2022/12/28 01:12:07;;;;;;;4.97;4.20;;;6.80;99.90;;;;;;10365010;23;20227;-81
2022/12/28 01:17:10;;;;;;;5.53;4.40;;;6.90;99.90;;;;;;10368702;28;20242;-81
2022/12/28 01:22:13;;;;;;;5.80;4.63;;;6.90;99.90;;;;;;10352824;28;20214;-81
2022/12/28 01:27:16;;;;;;;4.87;4.47;;;6.90;99.90;;;;;;10371685;28;20225;-80
2022/12/28 01:32:18;;;;;;;10.80;4.43;;;6.80;99.90;;;;;;10375156;28;20249;-82
2022/12/28 01:37:21;;;;;;;4.47;4.17;;;6.80;99.90;;;;;;10364251;28;20215;-82
2022/12/28 01:42:24;;;;;;;4.23;4.03;;;6.70;99.90;;;;;;10348719;28;20262;-80
2022/12/28 01:47:31;;;;;;;4.77;4.30;;;6.70;99.90;;;;;;10360909;28;20195;-81
2022/12/28 01:52:37;;;;;;;4.33;4.00;;;6.70;99.90;;;;;;10366269;28;20219;-81
2022/12/28 01:57:44;;;;;;;5.00;3.83;;;6.70;99.90;;;;;;10350188;28;20338;-81
2022/12/28 02:02:52;;;;;;;4.83;4.33;;;6.70;99.90;;;;;;10346916;28;20218;-81
2022/12/28 02:07:59;;;;;;;4.37;4.17;;;6.70;99.90;;;;;;10349763;28;20264;-80
2022/12/28 02:13:04;;;;;;;5.40;4.57;;;6.70;99.90;;;;;;10351570;28;20247;-81
2022/12/28 02:18:06;;;;;;;4.90;4.13;;;6.70;99.90;;;;;;10351655;28;20199;-81
2022/12/28 02:23:31;;;;;;;3.90;3.60;;;6.70;99.90;;;;;;10337074;28;20219;-81
2022/12/28 02:29:15;;;;;;;4.93;4.40;;;6.80;99.90;;;;;;10352530;28;20592;-82
2022/12/28 02:34:25;;;;;;;5.80;4.20;;;6.80;99.90;;;;;;10330600;28;20226;-81
2022/12/28 02:39:32;;;;;;;3.87;3.67;;;6.90;99.90;;;;;;10345937;28;20219;-80
2022/12/28 02:50:07;;;;;;;4.27;3.97;;;7.00;99.90;;;;;;10328556;28;20560;-83
2022/12/28 03:00:54;;;;;;;3.47;3.20;;;7.10;99.90;;;;;;10311788;28;20234;-80
2022/12/28 03:11:35;;;;;;;4.33;3.27;;;7.20;99.90;;;;;;10351627;28;20622;-81
2022/12/28 03:32:41;;;;;;;2.73;2.53;;;7.60;99.90;;;;;;10334105;28;20617;-82
2022/12/28 03:37:52;;;;;;;3.87;2.90;;;7.60;99.90;;;;;;10349539;28;20234;-82
2022/12/28 03:48:20;;;;;;;2.97;2.77;;;7.70;99.90;;;;;;10353045;28;20199;-82
2022/12/28 03:53:30;;;;;;;5.00;2.87;;;7.80;99.90;;;;;;10356479;28;20207;-81
2022/12/28 03:58:33;;;;;;;3.40;3.10;;;7.90;99.90;;;;;;10354861;28;20294;-82
2022/12/28 04:03:36;;;;;;;3.53;3.20;;;7.90;99.90;;;;;;10339559;28;20192;-81
2022/12/28 04:08:40;;;;;;;3.10;2.33;;;8.00;99.90;;;;;;10349688;28;20207;-83
2022/12/28 04:13:42;;;;;;;4.03;2.93;;;8.00;99.90;;;;;;10349058;28;20218;-81
2022/12/28 04:18:47;;;;;;;5.47;4.90;;;8.00;99.90;;;;;;10331714;28;20218;-82
2022/12/28 04:23:51;;;;;;;3.20;3.00;;;8.10;99.90;;;;;;10352347;28;20706;-82
2022/12/28 04:29:00;;;;;;;2.93;2.83;;;8.10;99.90;;;;;;10357691;28;20758;-80
2022/12/28 04:34:14;;;;;;;3.30;3.10;;;8.10;99.90;;;;;;10339359;28;20291;-82
2022/12/28 04:39:24;;;;;;;2.83;2.63;;;8.00;99.90;;;;;;10341636;28;20226;-81
2022/12/28 04:44:26;;;;;;;2.67;2.57;;;8.10;99.90;;;;;;10340102;28;20278;-82
2022/12/28 04:49:28;;;;;;;5.00;4.63;;;8.10;99.90;;;;;;10358050;28;20215;-80
2022/12/28 04:54:32;;;;;;;2.80;2.70;;;8.10;99.90;;;;;;10336836;28;20246;-80
2022/12/28 04:59:34;;;;;;;3.00;2.67;;;8.10;99.90;;;;;;10346443;28;20241;-81
2022/12/28 05:04:36;;;;;;;2.93;2.73;;;8.10;99.90;;;;;;10347014;28;20199;-81
2022/12/28 05:09:40;;;;;;;3.00;2.60;;;8.20;99.90;;;;;;10337923;28;20325;-82
2022/12/28 05:14:43;;;;;;;2.43;2.23;;;8.20;99.90;;;;;;10358768;28;20206;-81
2022/12/28 05:19:45;;;;;;;3.07;2.80;;;8.20;99.90;;;;;;10327619;28;20218;-81
2022/12/28 05:24:49;;;;;;;3.00;2.80;;;8.20;99.90;;;;;;10371355;28;20191;-81
2022/12/28 05:29:51;;;;;;;2.73;2.63;;;8.20;99.90;;;;;;10350734;28;20290;-81
2022/12/28 05:34:53;;;;;;;4.10;2.70;;;8.20;99.90;;;;;;10367989;28;20214;-81
2022/12/28 05:39:56;;;;;;;2.93;2.50;;;8.30;99.90;;;;;;10363091;28;20223;-81
2022/12/28 05:44:58;;;;;;;6.30;3.43;;;8.30;99.90;;;;;;10348461;28;20223;-82
2022/12/28 05:50:00;;;;;;;2.87;2.63;;;8.30;99.90;;;;;;10351693;28;20230;-81
2022/12/28 05:55:04;;;;;;;2.93;2.70;;;8.30;99.90;;;;;;10332508;28;20618;-81
2022/12/28 06:00:08;;;;;;;2.67;2.47;;;8.30;99.90;;;;;;10353563;28;20584;-80
2022/12/28 06:05:16;;;;;;;2.30;2.20;;;8.20;99.90;;;;;;10355033;28;20201;-79
2022/12/28 06:10:19;;;;;;;3.07;2.77;;;8.30;99.90;;;;;;10331470;28;20219;-77
2022/12/28 06:15:21;;;;;;;2.53;2.43;;;8.20;99.90;;;;;;10330657;28;20219;-78
2022/12/28 06:20:23;;;;;;;2.60;2.43;;;8.20;99.90;;;;;;10331553;28;20261;-77
2022/12/28 06:25:27;;;;;;;6.00;2.73;;;8.20;99.90;;;;;;10343290;28;20202;-79
2022/12/28 06:30:29;;;;;;;2.60;2.40;;;8.20;99.90;;;;;;10341151;28;20763;-78
2022/12/28 06:35:31;;;;;;;2.63;2.53;;;8.20;99.90;;;;;;10331863;28;20215;-77
2022/12/28 06:40:34;;;;;;;3.57;2.90;;;8.30;99.90;;;;;;10341876;28;20235;-80
2022/12/28 06:45:36;;;;;;;2.63;2.40;;;8.30;99.90;;;;;;10346130;28;20242;-81
2022/12/28 06:50:38;;;;;;;2.73;2.53;;;8.40;99.90;;;;;;10343822;28;20219;-80
2022/12/28 06:55:41;;;;;;;3.10;2.90;;;8.40;99.90;;;;;;10325060;28;20206;-79
2022/12/28 07:00:43;;;;;;;2.70;2.50;;;8.60;99.90;;;;;;10351342;28;20238;-79
2022/12/28 07:05:46;;;;;;;2.53;2.40;;;8.50;99.90;;;;;;10332332;28;20195;-80
2022/12/28 07:10:49;;;;;;;2.90;2.63;;;8.50;99.90;;;;;;10366728;23;20714;-83
2022/12/28 07:15:51;;;;;;;3.00;2.70;;;8.60;99.90;;;;;;10324485;28;20219;-83
2022/12/28 07:20:59;;;;;;;2.87;2.60;;;8.60;99.90;;;;;;10321720;28;20214;-83
2022/12/28 07:26:08;;;;;;;2.60;2.50;;;8.60;99.90;;;;;;10339531;28;20298;-82
2022/12/28 07:31:13;;;;;;;3.07;2.87;;;8.60;99.90;;;;;;10340411;28;20427;-83
2022/12/28 07:36:17;;;;;;;2.43;2.23;;;8.50;99.90;;;;;;10357741;28;20207;-82
2022/12/28 07:41:23;;;;;;;2.83;2.57;;;8.50;99.90;;;;;;10356463;28;20223;-81
2022/12/28 07:46:27;;;;;;;1.60;1.43;;;8.50;99.90;;;;;;10334585;28;20286;-80
2022/12/28 07:51:32;;;;;;;3.10;2.80;;;8.50;99.90;;;;;;10331137;28;20343;-82
2022/12/28 07:56:35;;;;;;;2.40;2.30;;;8.50;99.90;;;;;;10331943;28;20257;-82
2022/12/28 08:01:37;;;;;;;3.93;3.67;;;8.60;99.90;;;;;;10334727;28;20301;-84
2022/12/28 08:06:41;;;;;;;2.43;2.23;;;8.60;99.90;;;;;;10366195;28;20195;-82
2022/12/28 08:11:45;;;;;;;2.93;2.70;;;8.50;99.90;;;;;;10336091;28;20223;-80
2022/12/28 08:16:47;;;;;;;3.37;3.17;;;8.50;99.90;;;;;;10331013;28;20528;-82
2022/12/28 08:21:49;;;;;;;4.73;4.13;;;8.60;99.90;;;;;;10353315;28;20219;-82
2022/12/28 08:26:53;;;;;;;2.87;2.67;;;8.60;99.90;;;;;;10345629;28;20267;-81
2022/12/28 08:31:55;;;;;;;3.00;2.90;;;8.70;99.90;;;;;;10341929;28;20238;-82
2022/12/28 08:36:57;;;;;;;3.60;3.33;;;8.60;99.90;;;;;;10356954;28;20246;-82
2022/12/28 08:42:00;;;;;;;4.03;3.60;;;8.70;99.90;;;;;;10359685;28;20211;-82
2022/12/28 08:47:02;;;;;;;5.80;5.03;;;8.70;99.90;;;;;;10343873;28;20221;-83
2022/12/28 08:52:06;;;;;;;8.27;6.60;;;8.70;99.90;;;;;;10359907;28;20235;-82
2022/12/28 08:57:09;;;;;;;3.93;3.60;;;8.70;99.90;;;;;;10334569;28;20686;-82
2022/12/28 09:02:14;;;;;;;4.50;4.03;;;8.80;99.90;;;;;;10348741;28;20223;-80
2022/12/28 09:07:16;;;;;;;6.40;3.40;;;8.80;99.90;;;;;;10316012;28;20198;-81
2022/12/28 09:12:21;;;;;;;3.90;3.60;;;8.90;99.90;;;;;;10354468;28;20250;-80
2022/12/28 09:17:26;;;;;;;7.63;5.77;;;9.10;99.90;;;;;;10340667;28;20289;-82
2022/12/28 09:22:31;;;;;;;5.30;4.43;;;9.10;99.90;;;;;;10323548;28;20242;-83
2022/12/28 09:28:31;;;;;;;3.90;3.60;;;9.10;99.90;;;;;;10324232;28;20187;-81
2022/12/28 09:34:01;;;;;;;5.67;4.30;;;9.10;99.90;;;;;;10317553;28;20214;-81
2022/12/28 09:39:05;;;;;;;4.50;3.60;;;9.20;99.90;;;;;;10319365;28;20230;-80
2022/12/28 09:44:26;;;;;;;4.70;4.30;;;9.30;99.90;;;;;;10335283;28;20207;-81
2022/12/28 09:49:37;;;;;;;5.80;5.30;;;9.40;99.90;;;;;;10332941;28;20221;-81
2022/12/28 09:54:39;;;;;;;4.57;4.17;;;9.30;99.90;;;;;;10327806;28;20211;-83
2022/12/28 09:59:42;;;;;;;5.30;4.90;;;9.40;99.90;;;;;;10341789;28;20687;-82
2022/12/28 10:04:48;;;;;;;4.60;4.30;;;9.30;99.90;;;;;;10347560;28;20227;-82
2022/12/28 10:09:50;;;;;;;5.57;4.97;;;9.30;99.90;;;;;;10340548;28;20227;-82
2022/12/28 10:14:53;;;;;;;5.20;4.60;;;9.50;99.90;;;;;;10353356;28;20683;-81
2022/12/28 10:19:58;;;;;;;6.17;5.67;;;9.60;99.90;;;;;;10328986;28;20231;-82
2022/12/28 10:25:00;;;;;;;5.47;5.07;;;9.70;99.90;;;;;;10342205;28;20215;-83
2022/12/28 10:30:10;;;;;;;3.90;3.70;;;9.80;99.90;;;;;;10343146;28;20270;-82
2022/12/28 10:35:23;;;;;;;3.83;3.57;;;9.90;99.90;;;;;;10328377;28;20250;-82
2022/12/28 10:40:28;;;;;;;3.90;3.70;;;10.00;99.90;;;;;;10338596;28;20745;-81
2022/12/28 10:45:35;;;;;;;2.93;2.60;;;10.20;99.90;;;;;;10339130;28;20221;-82
2022/12/28 10:50:42;;;;;;;3.37;3.03;;;10.50;99.90;;;;;;10330551;28;20250;-80
2022/12/28 10:55:44;;;;;;;2.47;2.27;;;10.60;99.90;;;;;;10313762;28;20314;-81
2022/12/28 11:00:54;;;;;;;2.80;2.60;;;10.80;99.90;;;;;;10334543;28;20229;-81
2022/12/28 11:06:14;;;;;;;3.63;3.33;;;10.90;99.90;;;;;;10338055;28;20250;-81
2022/12/28 11:11:21;;;;;;;2.67;2.47;;;11.00;99.90;;;;;;10337487;28;20238;-80
2022/12/28 11:16:23;;;;;;;3.10;2.80;;;11.10;99.90;;;;;;10328100;28;20309;-82
2022/12/28 11:21:26;;;;;;;2.50;2.40;;;11.10;99.90;;;;;;10328360;28;20250;-82
2022/12/28 11:26:30;;;;;;;4.80;3.20;;;11.00;99.90;;;;;;10332242;28;20200;-82
2022/12/28 11:31:35;;;;;;;4.33;2.60;;;10.90;99.90;;;;;;10322883;28;20227;-82
2022/12/28 11:36:40;;;;;;;2.67;2.47;;;10.80;99.90;;;;;;10345388;28;20207;-80
2022/12/28 11:41:44;;;;;;;2.40;2.30;;;10.80;99.90;;;;;;10336326;28;20221;-82
2022/12/28 11:46:59;;;;;;;3.10;2.70;;;10.70;99.90;;;;;;10319871;28;20208;-81
2022/12/28 11:52:44;;;;;;;2.40;2.30;;;10.70;99.90;;;;;;10347223;28;20790;-81
2022/12/28 11:57:47;;;;;;;2.77;2.60;;;10.80;99.90;;;;;;10338802;28;20219;-80
2022/12/28 12:02:51;;;;;;;2.97;2.77;;;10.80;99.90;;;;;;10337474;28;20219;-83
2022/12/28 12:07:53;;;;;;;3.10;2.90;;;10.80;99.90;;;;;;10325946;28;20605;-83
2022/12/28 12:12:57;;;;;;;3.53;2.60;;;10.70;99.90;;;;;;10321061;28;20246;-83
2022/12/28 12:18:02;;;;;;;2.60;2.40;;;10.70;99.90;;;;;;10327018;28;20247;-83
2022/12/28 12:23:09;;;;;;;2.33;2.13;;;10.70;99.90;;;;;;10320004;28;20294;-83
2022/12/28 12:28:33;;;;;;;3.97;2.53;;;10.60;99.90;;;;;;10318493;28;20194;-83
2022/12/28 12:33:40;;;;;;;2.50;2.00;;;10.60;99.90;;;;;;10317974;28;20251;-83
2022/12/28 12:39:03;;;;;;;3.00;2.80;;;10.60;99.90;;;;;;10313844;28;20302;-83
2022/12/28 12:44:19;;;;;;;3.10;2.80;;;10.80;99.90;;;;;;10315781;28;20203;-80
2022/12/28 12:49:33;;;;;;;2.87;2.40;;;10.90;99.90;;;;;;10319550;28;20219;-81
2022/12/28 12:54:47;;;;;;;2.83;2.63;;;11.00;99.90;;;;;;10330953;28;20749;-80
2022/12/28 13:00:03;;;;;;;2.40;2.30;;;11.20;99.90;;;;;;10327084;28;20211;-81
2022/12/28 13:05:07;;;;;;;2.03;1.93;;;11.30;99.90;;;;;;10327401;28;20229;-80
2022/12/28 13:10:16;;;;;;;2.80;2.60;;;11.30;99.90;;;;;;10332788;28;20231;-80
2022/12/28 13:15:19;;;;;;;3.37;3.00;;;11.20;99.90;;;;;;10321412;28;20203;-79
2022/12/28 13:20:22;;;;;;;3.03;2.73;;;11.20;99.90;;;;;;10324041;28;20222;-81
2022/12/28 13:25:26;;;;;;;3.43;2.93;;;11.20;99.90;;;;;;10323713;28;20251;-82
2022/12/28 13:30:30;;;;;;;3.67;3.37;;;11.20;99.90;;;;;;10322439;28;20213;-84
2022/12/28 13:35:33;;;;;;;2.40;2.30;;;11.20;99.90;;;;;;10335340;28;20215;-84
2022/12/28 13:40:38;;;;;;;6.67;3.80;;;11.10;99.90;;;;;;10333797;28;20215;-83
2022/12/28 13:45:41;;;;;;;2.90;2.60;;;11.10;99.90;;;;;;10323383;28;20190;-83
2022/12/28 13:50:43;;;;;;;2.80;2.70;;;11.10;99.90;;;;;;10329981;28;20219;-83
2022/12/28 13:55:49;;;;;;;3.57;3.00;;;11.00;99.90;;;;;;10322815;28;20222;-82
2022/12/28 14:00:55;;;;;;;3.03;2.83;;;11.00;99.90;;;;;;10324031;28;20298;-83
2022/12/28 14:06:00;;;;;;;2.80;2.60;;;11.00;99.90;;;;;;10325766;28;20195;-83
2022/12/28 14:11:03;;;;;;;3.57;3.20;;;11.00;99.90;;;;;;10351803;28;20303;-83
2022/12/28 14:16:08;;;;;;;2.60;2.40;;;11.00;99.90;;;;;;10341300;28;20302;-78
2022/12/28 14:21:11;;;;;;;3.60;2.60;;;11.00;99.90;;;;;;10343108;28;20230;-80
2022/12/28 14:26:20;;;;;;;2.80;2.60;;;11.00;99.90;;;;;;10352733;28;20206;-81
2022/12/28 14:31:26;;;;;;;16.87;7.70;;;11.00;99.90;;;;;;10340675;28;20597;-80
2022/12/28 14:36:30;;;;;;;4.57;3.00;;;11.00;99.90;;;;;;10308829;28;20218;-81
2022/12/28 14:41:38;;;;;;;2.73;2.53;;;11.00;99.90;;;;;;10348372;28;20256;-81
2022/12/28 14:46:42;;;;;;;2.77;2.60;;;10.90;99.90;;;;;;10331973;28;20195;-81
2022/12/28 14:51:44;;;;;;;2.83;2.40;;;11.00;99.90;;;;;;10339527;28;20621;-80
2022/12/28 14:56:50;;;;;;;3.30;3.10;;;11.00;99.90;;;;;;10324897;28;20290;-82
2022/12/28 15:01:54;;;;;;;3.17;2.97;;;10.90;99.90;;;;;;10312988;28;20223;-81
2022/12/28 15:06:57;;;;;;;2.70;2.60;;;10.90;99.90;;;;;;10310841;28;20227;-81
2022/12/28 15:12:10;;;;;;;2.90;2.70;;;10.90;99.90;;;;;;10306868;28;20233;-80
2022/12/28 15:17:15;;;;;;;2.90;2.70;;;10.80;99.90;;;;;;10309901;28;20258;-82
2022/12/28 15:22:17;;;;;;;3.77;3.47;;;10.80;99.90;;;;;;10313195;28;20226;-85
2022/12/28 15:27:19;;;;;;;2.73;2.63;;;10.80;99.90;;;;;;10310402;28;20188;-84
2022/12/28 15:32:22;;;;;;;3.60;3.30;;;10.80;99.90;;;;;;10310474;28;20230;-83
2022/12/28 15:37:24;;;;;;;3.33;3.07;;;10.70;99.90;;;;;;10314651;28;20219;-82
2022/12/28 15:42:26;;;;;;;3.13;2.50;;;10.70;99.90;;;;;;10317878;28;20296;-83
2022/12/28 15:47:30;;;;;;;2.90;2.67;;;10.60;99.90;;;;;;10315896;28;20743;-82
2022/12/28 15:52:32;;;;;;;3.20;2.90;;;10.60;99.90;;;;;;10312126;28;20220;-82
2022/12/28 15:57:34;;;;;;;3.00;2.80;;;10.50;99.90;;;;;;10296681;28;20310;-82
2022/12/28 16:02:38;;;;;;;3.20;2.90;;;10.50;99.90;;;;;;10337995;28;20250;-82
2022/12/28 16:07:40;;;;;;;2.70;2.60;;;10.50;99.90;;;;;;10319938;28;20640;-79
2022/12/28 16:12:42;;;;;;;3.50;3.20;;;10.40;99.90;;;;;;10317741;28;20330;-80
2022/12/28 16:17:46;;;;;;;3.23;2.93;;;10.30;99.90;;;;;;10318533;28;20230;-80
2022/12/28 16:22:49;;;;;;;2.93;2.80;;;10.40;99.90;;;;;;10315416;28;20238;-80
2022/12/28 16:27:51;;;;;;;3.13;2.53;;;10.30;99.90;;;;;;10330260;28;20202;-80
2022/12/28 16:32:54;;;;;;;3.50;3.27;;;10.40;99.90;;;;;;10337649;28;20213;-79
2022/12/28 16:37:57;;;;;;;2.83;2.63;;;10.40;99.90;;;;;;10320035;28;20215;-79
2022/12/28 16:42:59;;;;;;;3.43;3.23;;;10.40;99.90;;;;;;10317178;28;20227;-79
2022/12/28 16:48:02;;;;;;;3.17;2.90;;;10.40;99.90;;;;;;10320703;28;20230;-79
2022/12/28 16:53:05;;;;;;;5.07;4.63;;;10.40;99.90;;;;;;10319972;28;20668;-79
2022/12/28 16:58:07;;;;;;;9.23;8.37;;;10.40;99.70;;;;;;10331319;28;20228;-78
2022/12/28 17:03:10;;;;;;;4.23;3.20;;;10.40;99.80;;;;;;10322098;28;20230;-79
2022/12/28 17:08:12;;;;;;;3.00;2.60;;;10.40;99.60;;;;;;10329413;28;20257;-78
2022/12/28 17:13:15;;;;;;;2.93;2.70;;;10.40;99.10;;;;;;10370542;28;20273;-79
2022/12/28 17:18:18;;;;;;;3.90;3.60;;;10.40;99.80;;;;;;10380064;28;20222;-78
2022/12/28 17:23:20;;;;;;;4.43;4.13;;;10.30;99.90;;;;;;10351355;28;20262;-79
2022/12/28 17:28:23;;;;;;;6.10;5.60;;;10.30;99.90;;;;;;10337901;28;20315;-79
2022/12/28 17:33:26;;;;;;;4.40;4.10;;;10.30;99.90;;;;;;10353072;28;20273;-80
2022/12/28 17:38:28;;;;;;;3.43;3.13;;;10.20;99.90;;;;;;10347384;28;20302;-80
2022/12/28 17:43:30;;;;;;;5.17;4.77;;;10.20;99.90;;;;;;10341699;28;20218;-81
2022/12/28 17:48:33;;;;;;;5.20;4.70;;;10.10;99.90;;;;;;10365338;28;20290;-79
2022/12/28 17:53:35;;;;;;;5.10;4.60;;;10.10;99.90;;;;;;10360429;28;20302;-79
2022/12/28 17:58:38;;;;;;;4.40;4.00;;;10.00;99.90;;;;;;10356775;28;20645;-79
2022/12/28 18:03:41;;;;;;;4.77;4.37;;;10.00;99.90;;;;;;10343989;28;20593;-78
2022/12/28 18:08:43;;;;;;;5.10;4.63;;;9.90;99.90;;;;;;10353005;28;20732;-79
2022/12/28 18:13:47;;;;;;;3.90;3.60;;;9.90;99.90;;;;;;10343916;28;20283;-80
2022/12/28 18:18:50;;;;;;;6.00;4.80;;;9.80;99.90;;;;;;10340386;28;20583;-77
2022/12/28 18:23:52;;;;;;;4.90;4.50;;;9.80;99.90;;;;;;10333021;28;20253;-78
2022/12/28 18:28:55;;;;;;;4.80;4.40;;;9.80;99.90;;;;;;10324031;28;20203;-78
2022/12/28 18:34:00;;;;;;;5.00;4.60;;;9.80;99.90;;;;;;10333554;28;20301;-78
2022/12/28 18:39:03;;;;;;;4.97;4.63;;;9.70;99.90;;;;;;10351788;28;20279;-78
2022/12/28 18:44:06;;;;;;;4.90;4.50;;;9.80;99.90;;;;;;10351769;28;20257;-78
2022/12/28 18:49:10;;;;;;;5.13;4.73;;;9.80;99.90;;;;;;10351734;28;20214;-79
2022/12/28 18:54:12;;;;;;;5.50;5.00;;;9.80;99.90;;;;;;10349615;28;20584;-79
2022/12/28 18:59:14;;;;;;;4.40;4.10;;;9.80;99.90;;;;;;10353385;28;20326;-81
2022/12/28 19:04:18;;;;;;;4.83;4.50;;;9.70;99.90;;;;;;10346339;28;20373;-80
2022/12/28 19:09:20;;;;;;;5.50;5.03;;;9.70;99.90;;;;;;10354331;28;20294;-81
2022/12/28 19:14:22;;;;;;;6.87;5.70;;;9.70;99.90;;;;;;10343942;28;20717;-76
2022/12/28 19:19:25;;;;;;;15.60;11.37;;;9.70;99.90;;;;;;10313747;28;20309;-79
2022/12/28 19:24:28;;;;;;;10.00;9.00;;;9.70;99.90;;;;;;10348695;28;20195;-79
2022/12/28 19:29:31;;;;;;;7.50;6.87;;;9.60;99.90;;;;;;10352971;28;20214;-79
2022/12/28 19:34:34;;;;;;;6.70;5.47;;;9.60;99.90;;;;;;10373004;28;20727;-79
2022/12/28 19:39:36;;;;;;;5.47;5.00;;;9.60;99.90;;;;;;10356842;28;20306;-81
2022/12/28 19:44:39;;;;;;;5.00;4.60;;;9.50;99.90;;;;;;10353434;28;20562;-81
2022/12/28 19:49:43;;;;;;;5.37;5.07;;;9.50;99.90;;;;;;10334167;28;20291;-82
2022/12/28 19:54:45;;;;;;;5.00;4.60;;;9.50;99.90;;;;;;10350886;28;20227;-82
2022/12/28 19:59:48;;;;;;;5.67;5.27;;;9.50;99.90;;;;;;10356338;28;20749;-84
2022/12/28 20:04:53;;;;;;;12.50;11.20;;;9.40;99.90;;;;;;10350040;28;20219;-82
2022/12/28 20:09:55;;;;;;;9.23;8.40;;;9.40;99.90;;;;;;10357135;28;20229;-82
2022/12/28 20:14:57;;;;;;;9.07;8.20;;;9.50;99.90;;;;;;10350071;28;20195;-83
2022/12/28 20:20:00;;;;;;;7.90;7.20;;;9.40;99.90;;;;;;10337560;28;20227;-82
2022/12/28 20:25:03;;;;;;;9.70;7.37;;;9.40;99.90;;;;;;10350963;28;20199;-80
2022/12/28 20:30:06;;;;;;;6.77;6.20;;;9.40;99.90;;;;;;10359498;28;20246;-80
2022/12/28 20:35:09;;;;;;;6.27;5.50;;;9.40;99.90;;;;;;10358366;28;20229;-81
2022/12/28 20:40:12;;;;;;;5.50;5.00;;;9.30;99.90;;;;;;10337900;28;20228;-82
2022/12/28 20:45:14;;;;;;;4.83;4.43;;;9.20;99.90;;;;;;10340104;28;20727;-81
2022/12/28 20:50:17;;;;;;;4.07;3.77;;;9.20;99.90;;;;;;10356991;28;20210;-81
2022/12/28 20:55:20;;;;;;;4.50;4.10;;;9.30;99.90;;;;;;10352023;28;20245;-81
2022/12/28 21:00:22;;;;;;;5.63;5.00;;;9.30;99.90;;;;;;10325312;28;20289;-81
2022/12/28 21:05:25;;;;;;;3.90;3.60;;;9.40;99.90;;;;;;10339854;28;20226;-81
2022/12/28 21:10:27;;;;;;;4.67;4.37;;;9.50;99.90;;;;;;10336202;28;20676;-81
2022/12/28 21:15:29;;;;;;;4.30;3.90;;;9.60;99.90;;;;;;10330529;28;20242;-81
2022/12/28 21:20:33;;;;;;;3.83;3.63;;;9.60;99.90;;;;;;10339490;28;20322;-81
2022/12/28 21:25:35;;;;;;;4.50;4.10;;;9.60;99.90;;;;;;10328573;28;20542;-83
2022/12/28 21:30:37;;;;;;;3.83;3.63;;;9.60;99.90;;;;;;10329858;28;20223;-82
2022/12/28 21:35:40;;;;;;;4.13;3.83;;;9.70;99.90;;;;;;10334482;28;20223;-83
2022/12/28 21:40:42;;;;;;;4.60;4.30;;;9.70;99.90;;;;;;10335487;28;20425;-81
2022/12/28 21:45:45;;;;;;;4.30;4.00;;;9.80;99.90;;;;;;10335844;28;20199;-82
2022/12/28 21:50:48;;;;;;;3.97;3.67;;;9.80;99.90;;;;;;10341086;28;20251;-83
2022/12/28 21:55:50;;;;;;;11.07;9.87;;;9.80;99.90;;;;;;10336885;28;20400;-81
2022/12/28 22:06:18;;;;;;;4.57;3.70;;;9.90;99.90;;;;;;10335233;28;20199;-79
2022/12/28 22:16:40;;;;;;;4.07;3.77;;;9.90;99.90;;;;;;10336400;28;20686;-79
2022/12/28 22:21:43;;;;;;;3.47;3.17;;;9.90;99.90;;;;;;10332054;28;20224;-80
2022/12/28 22:26:46;;;;;;;3.63;3.43;;;9.90;99.90;;;;;;10318556;28;20581;-81
2022/12/28 22:31:48;;;;;;;4.93;4.53;;;10.00;99.90;;;;;;10335389;28;20219;-84
2022/12/28 22:36:51;;;;;;;3.60;3.30;;;10.00;99.90;;;;;;10338765;28;20207;-82
2022/12/28 22:41:58;;;;;;;3.80;3.50;;;10.00;99.90;;;;;;10338065;28;20218;-83
2022/12/28 22:47:00;;;;;;;3.70;3.50;;;10.00;99.90;;;;;;10345388;28;20195;-81
2022/12/28 22:52:04;;;;;;;3.80;3.60;;;10.00;99.90;;;;;;10347220;28;20214;-81
2022/12/28 22:57:06;;;;;;;3.90;3.60;;;10.10;99.90;;;;;;10356673;28;20230;-81
2022/12/28 23:02:08;;;;;;;9.03;3.87;;;10.10;99.90;;;;;;10349567;28;20237;-82
2022/12/28 23:07:12;;;;;;;5.07;3.60;;;10.10;99.90;;;;;;10373930;28;20221;-81
2022/12/28 23:12:14;;;;;;;4.30;3.90;;;10.10;99.90;;;;;;10362035;28;20238;-81
2022/12/28 23:17:17;;;;;;;4.30;3.90;;;10.10;99.90;;;;;;10338218;28;20767;-81
2022/12/28 23:27:44;;;;;;;3.87;3.63;;;10.10;99.90;;;;;;10342405;28;20214;-82
2022/12/28 23:32:47;;;;;;;3.60;3.30;;;10.10;99.90;;;;;;10346773;28;20292;-82
2022/12/28 23:37:50;;;;;;;3.60;3.40;;;10.10;99.90;;;;;;10352622;28;20743;-82
2022/12/28 23:42:53;;;;;;;3.87;3.30;;;10.10;99.90;;;;;;10336535;28;20266;-82
2022/12/28 23:47:55;;;;;;;4.97;4.00;;;10.20;99.90;;;;;;10346099;28;20600;-82
2022/12/28 23:52:58;;;;;;;3.80;3.60;;;10.30;99.90;;;;;;10353230;28;20219;-82
2022/12/28 23:58:00;;;;;;;5.93;5.33;;;10.30;99.90;;;;;;10334463;28;20215;-82
